Pruitt, Arkansas
Current Conditions -  °F | °C
As of 3:53 AM on Friday 31 Oct 2014 (Local Time) from KHRO Reporting Station
Clear Clear  
Wind Chill: 45°   Ceiling: Unl
Heat Index: 49°   Visibility: 10mi
Dew Point: 41°   Wind: 8mph
Humidity: 74%   Direction: 320°NW
Pressure: 30.13"   Gusts: NA
Location:  36.0842°N, 93.1502°W
Report Text: KHRO 310853Z AUTO 32007KT 10SM CLR 09/05 A3013 RMK AO2 SLP195 T00940050 53009
Loading
Personal Weather Stations






























Interactive Weather Map
Tropical Storm Tracking
New forecast layout! Learn more

10-Day Weather Forecast

Advertisements
Track Severe Weather on mobile